< < Back
Terminal Aerodrome Forecast


Current Version              Previous Versions:   1  2  3  4  5  6  7  8  9  

Terminal Aerodrome Forecast

878
FTUS42 KCAE 250903 AAA
TAFCAE
TAF AMD
KCAE 250903Z 2509/2606 21003KT P6SM SCT070 SCT200
     FM251500 19006KT P6SM SCT060 SCT150
     FM260200 VRB03KT P6SM FEW150=

Latest METAR

613
SAUS80 KWBC 251500
MTRCAE
METAR KCAE 251456Z 27005KT 10SM BKN120 BKN200 31/22 A3008 RMK AO2 SLP181
T03060222 51004


USA.gov is the U.S. government's official web portal to all federal, state and local government web resources and services.